X  Chiuso Dati meteorologici dell'aviazione (METAR)     LDPL Pula Airport
Temperatura
19°C Temperatura
12°C Punto di rugiada
64% Umidità



Vento
8 KM/O
5 MPH
2 M/S
4 KTS



30°
NNE
Condizioni attuali

Chiaro Chiaro
Pressione 1018.92 (hPa) - 30.09 (inHg)
Visibilità 6.2 (miglio) - 10 (km)
Aeroporto
Codice-Aeroporto LDPL

Posizione: Pula Airport
Distanza: 39 (km)

Metar:
LDPL 270000Z 03004KT 330V050 CAVOK 19/12 Q1019

Ore: 27-05-2022 02:00 CEST